createdAt,value
2019-02-12T00:01:05.636Z,58.31
2019-02-12T00:03:33.726Z,59.47
2019-02-12T00:06:01.734Z,60.58
2019-02-12T00:08:29.722Z,60.45
2019-02-12T00:10:57.778Z,58.92
2019-02-12T00:13:25.735Z,59.35
2019-02-12T00:15:53.752Z,61.79
2019-02-12T00:18:21.764Z,60.78
2019-02-12T00:20:49.878Z,59.79
2019-02-12T00:23:17.897Z,61.35
2019-02-12T00:25:45.965Z,60.51
2019-02-12T00:28:14.099Z,59.61
2019-02-12T00:30:42.175Z,61.68
2019-02-12T00:33:10.204Z,59.74
2019-02-12T00:35:38.256Z,62.49
2019-02-12T00:38:06.323Z,60.40
2019-02-12T00:40:34.320Z,61.84
2019-02-12T00:43:02.361Z,62.61
2019-02-12T00:45:30.397Z,61.14
2019-02-12T00:47:58.357Z,62.82
2019-02-12T00:50:26.470Z,60.49
2019-02-12T00:52:54.527Z,60.63
2019-02-12T00:55:22.611Z,60.23
2019-02-12T00:57:50.602Z,62.17
2019-02-12T01:00:18.683Z,62.26
2019-02-12T01:02:46.665Z,62.01
2019-02-12T01:05:14.698Z,61.84
2019-02-12T01:07:42.772Z,62.05
2019-02-12T01:10:10.960Z,61.71
2019-02-12T01:12:39.024Z,61.79
2019-02-12T01:15:08.816Z,62.08
2019-02-12T01:17:36.787Z,61.80
2019-02-12T01:20:05.456Z,62.48
2019-02-12T01:22:33.440Z,62.18
2019-02-12T01:25:01.552Z,62.73
2019-02-12T01:27:29.586Z,62.31
2019-02-12T01:29:57.583Z,64.07
2019-02-12T01:32:25.644Z,63.58
2019-02-12T01:34:53.656Z,64.20
2019-02-12T01:37:21.692Z,63.21
2019-02-12T01:39:49.792Z,63.87
2019-02-12T01:42:17.758Z,64.33
2019-02-12T01:44:45.770Z,63.20
2019-02-12T01:47:13.821Z,63.36
2019-02-12T01:49:41.875Z,64.11
2019-02-12T01:52:09.873Z,63.92
2019-02-12T01:54:37.972Z,63.85
2019-02-12T01:57:05.981Z,63.87
2019-02-12T01:59:34.066Z,63.85
2019-02-12T02:02:02.247Z,64.13
2019-02-12T02:04:30.283Z,63.92
2019-02-12T02:06:59.812Z,64.33
2019-02-12T02:09:27.833Z,65.06
2019-02-12T02:11:55.828Z,64.38
2019-02-12T02:14:23.845Z,64.91
2019-02-12T02:16:51.773Z,65.05
2019-02-12T02:19:19.821Z,65.98
2019-02-12T02:21:47.796Z,65.53
2019-02-12T02:24:15.876Z,65.98
2019-02-12T02:26:44.018Z,66.57
2019-02-12T02:29:12.075Z,66.77
2019-02-12T02:31:40.058Z,66.73
2019-02-12T02:34:08.080Z,66.75
2019-02-12T02:36:36.162Z,67.02
2019-02-12T02:39:05.053Z,67.13
2019-02-12T02:41:33.028Z,67.05
2019-02-12T02:44:01.072Z,67.12
2019-02-12T02:46:29.120Z,67.11
2019-02-12T02:48:57.129Z,67.45
2019-02-12T02:51:25.508Z,67.23
2019-02-12T02:53:53.571Z,67.53
2019-02-12T02:56:21.633Z,67.48
2019-02-12T02:58:50.003Z,67.86
2019-02-12T03:01:18.033Z,67.67
2019-02-12T03:03:46.039Z,68.26
2019-02-12T03:06:14.029Z,68.21
2019-02-12T03:08:42.143Z,68.12
2019-02-12T03:11:10.492Z,68.29
2019-02-12T03:13:38.571Z,68.91
2019-02-12T03:16:06.658Z,68.72
2019-02-12T03:18:34.771Z,69.18
2019-02-12T03:21:02.837Z,69.21
2019-02-12T03:23:30.875Z,69.71
2019-02-12T03:25:58.948Z,69.94
2019-02-12T03:28:27.027Z,69.48
2019-02-12T03:30:55.056Z,69.56
2019-02-12T03:33:23.248Z,70.34
2019-02-12T03:35:51.293Z,70.42
2019-02-12T03:38:19.338Z,70.28
2019-02-12T03:40:47.379Z,70.46
2019-02-12T03:43:15.352Z,70.42
2019-02-12T03:45:43.470Z,70.56
2019-02-12T03:48:11.518Z,70.57
2019-02-12T03:50:39.662Z,70.89
2019-02-12T03:53:07.671Z,71.24
2019-02-12T03:55:35.737Z,71.28
2019-02-12T03:58:03.769Z,71.17
2019-02-12T04:00:31.780Z,70.81
2019-02-12T04:03:18.925Z,71.34
2019-02-12T04:05:47.039Z,71.54
2019-02-12T04:08:15.085Z,71.71
2019-02-12T04:10:44.971Z,70.96
2019-02-12T04:13:12.947Z,72.15
2019-02-12T04:15:41.141Z,71.72
2019-02-12T04:18:09.264Z,70.01
2019-02-12T04:20:37.282Z,71.75
2019-02-12T04:23:05.374Z,71.71
2019-02-12T04:25:33.404Z,71.41
2019-02-12T04:28:01.469Z,70.33
2019-02-12T04:30:29.774Z,70.97
2019-02-12T04:32:57.837Z,72.98
2019-02-12T04:35:25.845Z,73.08
2019-02-12T04:37:53.812Z,72.99
2019-02-12T04:40:21.922Z,71.77
2019-02-12T04:42:49.995Z,74.00
2019-02-12T04:45:17.994Z,73.17
2019-02-12T04:47:46.220Z,71.57
2019-02-12T04:50:14.396Z,72.04
2019-02-12T04:52:42.381Z,74.05
2019-02-12T04:55:11.336Z,73.92
2019-02-12T04:57:39.367Z,73.71
2019-02-12T05:00:09.997Z,72.25
2019-02-12T05:02:38.230Z,72.67
2019-02-12T05:05:06.722Z,73.96
2019-02-12T05:07:34.765Z,72.82
2019-02-12T05:10:02.823Z,72.86
2019-02-12T05:12:30.897Z,71.55
2019-02-12T05:14:58.963Z,72.78
2019-02-12T05:17:26.977Z,72.14
2019-02-12T05:19:55.068Z,72.77
2019-02-12T05:22:23.034Z,72.46
2019-02-12T05:24:51.027Z,73.27
2019-02-12T05:27:19.061Z,73.94
2019-02-12T05:29:47.105Z,73.50
2019-02-12T05:32:15.207Z,71.76
2019-02-12T05:34:43.177Z,70.82
2019-02-12T05:37:11.164Z,73.57
2019-02-12T05:39:39.196Z,72.72
2019-02-12T05:42:07.248Z,74.74
2019-02-12T05:44:35.371Z,76.10
2019-02-12T05:47:03.334Z,76.82
2019-02-12T05:49:31.382Z,76.93
2019-02-12T05:51:59.406Z,77.42
2019-02-12T05:54:27.426Z,78.12
2019-02-12T05:56:55.404Z,78.32
2019-02-12T05:59:23.402Z,78.21
2019-02-12T06:01:51.395Z,77.46
2019-02-12T06:04:19.412Z,77.42
2019-02-12T06:06:47.461Z,77.83
2019-02-12T06:09:15.472Z,78.22
2019-02-12T06:11:43.434Z,78.80
2019-02-12T06:14:11.496Z,78.06
2019-02-12T06:16:39.526Z,78.86
2019-02-12T06:19:07.627Z,74.49
2019-02-12T06:21:35.658Z,75.15
2019-02-12T06:24:03.821Z,77.63
2019-02-12T06:26:31.833Z,78.34
2019-02-12T06:29:00.024Z,78.04
2019-02-12T06:31:28.007Z,78.83
2019-02-12T06:33:55.985Z,73.69
2019-02-12T06:36:24.015Z,75.47
2019-02-12T06:38:52.171Z,73.75
2019-02-12T06:41:20.280Z,77.90
2019-02-12T06:43:48.334Z,78.33
2019-02-12T06:46:16.382Z,77.09
2019-02-12T06:48:44.414Z,78.76
2019-02-12T06:51:12.602Z,78.72
2019-02-12T06:53:40.628Z,79.14
2019-02-12T06:56:08.773Z,79.15
2019-02-12T06:58:36.924Z,78.65
2019-02-12T07:01:04.942Z,79.28
2019-02-12T07:04:02.204Z,76.08
2019-02-12T07:07:07.750Z,77.90
2019-02-12T07:09:48.703Z,77.31
2019-02-12T07:13:06.230Z,76.47
2019-02-12T07:16:27.862Z,78.34
2019-02-12T07:19:43.237Z,77.10
2019-02-12T07:22:35.015Z,78.28
2019-02-12T07:25:41.460Z,74.33
2019-02-12T07:28:37.361Z,78.60
2019-02-12T07:31:45.590Z,73.32
2019-02-12T07:34:51.877Z,77.87
2019-02-12T07:38:09.829Z,77.21
2019-02-12T07:41:19.887Z,77.45
2019-02-12T07:44:17.097Z,77.06
2019-02-12T07:47:10.753Z,75.10
2019-02-12T07:50:15.776Z,77.68
2019-02-12T07:53:15.165Z,78.07
2019-02-12T07:56:33.011Z,77.83
2019-02-12T07:59:40.923Z,76.09
2019-02-12T08:02:54.848Z,77.89
2019-02-12T08:05:36.469Z,77.14
2019-02-12T08:08:55.070Z,78.02
2019-02-12T08:11:50.950Z,77.53
2019-02-12T08:15:06.192Z,76.88
2019-02-12T08:17:49.356Z,76.47
2019-02-12T08:20:52.570Z,77.33
2019-02-12T08:23:41.477Z,74.14
2019-02-12T08:26:40.474Z,76.88
2019-02-12T08:30:00.023Z,76.33
2019-02-12T08:33:12.069Z,77.18
2019-02-12T08:35:57.108Z,76.37
2019-02-12T08:39:00.352Z,75.80
2019-02-12T08:42:15.447Z,76.11
2019-02-12T08:47:54.549Z,76.01
2019-02-12T08:50:50.381Z,74.90
2019-02-12T08:53:56.663Z,75.64
2019-02-12T08:57:02.938Z,74.89
2019-02-12T08:59:53.934Z,75.31
2019-02-12T09:03:00.192Z,73.18
2019-02-12T09:05:51.568Z,75.56
2019-02-12T09:09:04.665Z,75.65
2019-02-12T09:11:56.554Z,75.19
2019-02-12T09:14:33.586Z,75.71
2019-02-12T09:17:40.182Z,76.06
2019-02-12T09:20:48.604Z,76.39
2019-02-12T09:24:07.050Z,76.77
2019-02-12T09:27:13.357Z,76.71
2019-02-12T09:30:19.774Z,77.54
2019-02-12T09:33:18.610Z,77.82
2019-02-12T09:36:18.122Z,76.19
2019-02-12T09:39:22.729Z,75.86
2019-02-12T09:42:40.606Z,76.29
2019-02-12T09:45:21.811Z,75.77
2019-02-12T09:48:11.468Z,75.36
2019-02-12T09:51:00.628Z,74.04
2019-02-12T09:54:25.423Z,73.41
2019-02-12T09:57:17.911Z,75.90
2019-02-12T10:00:33.446Z,75.80
2019-02-12T10:03:38.230Z,74.78
2019-02-12T10:06:44.132Z,74.12
2019-02-12T10:09:59.299Z,73.28
2019-02-12T10:12:49.844Z,73.54
2019-02-12T10:15:56.151Z,74.32
2019-02-12T10:19:08.455Z,73.19
2019-02-12T10:22:11.246Z,72.29
2019-02-12T10:25:18.484Z,70.95
2019-02-12T10:28:16.748Z,70.24
2019-02-12T10:31:35.286Z,71.57
2019-02-12T10:34:03.391Z,72.53
2019-02-12T10:36:31.391Z,71.22
2019-02-12T10:38:59.555Z,70.64
2019-02-12T10:41:27.704Z,70.98
2019-02-12T10:43:55.673Z,72.29
2019-02-12T10:46:23.855Z,71.71
2019-02-12T10:48:52.830Z,71.65
2019-02-12T10:51:20.959Z,70.21
2019-02-12T10:53:49.027Z,71.33
2019-02-12T10:56:18.509Z,71.54
2019-02-12T10:58:46.489Z,69.11
2019-02-12T11:01:14.679Z,69.57
2019-02-12T11:03:42.695Z,71.19
2019-02-12T11:06:10.771Z,69.24
2019-02-12T11:08:38.822Z,67.94
2019-02-12T11:11:06.820Z,69.83
2019-02-12T11:13:34.972Z,71.20
2019-02-12T11:16:03.819Z,67.66
2019-02-12T11:18:31.796Z,69.02
2019-02-12T11:21:00.046Z,68.02
2019-02-12T11:23:28.315Z,70.17
2019-02-12T11:25:56.330Z,68.83
2019-02-12T11:28:24.414Z,68.69
2019-02-12T11:30:52.427Z,68.92
2019-02-12T11:33:20.460Z,68.34
2019-02-12T11:35:48.601Z,67.53
2019-02-12T11:38:16.713Z,70.14
2019-02-12T11:40:44.715Z,67.40
2019-02-12T11:43:12.865Z,69.45
2019-02-12T11:45:40.959Z,67.83
2019-02-12T11:48:09.036Z,68.25
2019-02-12T11:50:37.045Z,69.95
2019-02-12T11:53:05.138Z,70.70
2019-02-12T11:55:33.247Z,66.84
2019-02-12T11:58:01.405Z,72.50
2019-02-12T12:00:34.844Z,72.15
2019-02-12T12:03:02.911Z,67.60
2019-02-12T12:05:31.073Z,72.43
2019-02-12T12:07:59.203Z,72.31
2019-02-12T12:10:27.329Z,66.44
2019-02-12T12:12:55.445Z,66.34
2019-02-12T12:15:23.516Z,66.33
2019-02-12T12:17:51.552Z,67.99
2019-02-12T12:20:19.640Z,67.76
2019-02-12T12:22:47.847Z,68.52
2019-02-12T12:25:15.856Z,68.82
2019-02-12T12:27:43.902Z,65.92
2019-02-12T12:30:11.978Z,66.32
2019-02-12T12:32:40.121Z,64.99
2019-02-12T12:35:08.682Z,69.67
2019-02-12T12:37:36.802Z,70.08
2019-02-12T12:40:05.401Z,67.19
2019-02-12T12:42:33.472Z,68.58
2019-02-12T12:45:01.617Z,62.04
2019-02-12T12:47:29.728Z,71.25
2019-02-12T12:49:59.113Z,62.45
2019-02-12T12:52:27.606Z,61.88
2019-02-12T12:54:59.840Z,60.60
2019-02-12T12:57:25.727Z,60.52
2019-02-12T12:59:53.783Z,64.88
2019-02-12T13:02:21.991Z,60.54
2019-02-12T13:04:49.958Z,65.68
2019-02-12T13:07:18.173Z,57.71
2019-02-12T13:09:46.301Z,65.49
2019-02-12T13:12:14.383Z,64.73
2019-02-12T13:14:42.435Z,57.04
2019-02-12T13:17:11.561Z,63.74
2019-02-12T13:19:40.487Z,65.84
2019-02-12T13:22:08.662Z,59.28
2019-02-12T13:24:36.805Z,67.42
2019-02-12T13:27:04.806Z,64.71
2019-02-12T13:29:33.122Z,66.52
2019-02-12T13:32:01.106Z,60.71
2019-02-12T13:34:29.144Z,60.23
2019-02-12T13:36:57.200Z,61.90
2019-02-12T13:39:25.346Z,60.31
2019-02-12T13:41:53.464Z,62.83
2019-02-12T13:44:21.620Z,61.49
2019-02-12T13:46:49.722Z,65.40
2019-02-12T13:49:17.752Z,60.64
2019-02-12T13:51:45.768Z,61.95
2019-02-12T13:54:13.807Z,63.76
2019-02-12T13:56:41.864Z,62.31
2019-02-12T13:59:09.972Z,64.30
2019-02-12T14:01:38.266Z,59.75
2019-02-12T14:04:06.434Z,65.40
2019-02-12T14:06:34.486Z,63.64
2019-02-12T14:09:02.969Z,60.08
2019-02-12T14:11:31.103Z,63.49
2019-02-12T14:13:59.425Z,66.14
2019-02-12T14:16:27.512Z,62.11
2019-02-12T14:18:55.794Z,63.12
2019-02-12T14:21:23.836Z,68.35
2019-02-12T14:23:51.939Z,72.03
2019-02-12T14:26:19.951Z,64.44
2019-02-12T14:28:48.004Z,66.74
2019-02-12T14:31:16.031Z,64.25
2019-02-12T14:33:44.103Z,61.24
2019-02-12T14:36:12.096Z,67.68
2019-02-12T14:38:40.149Z,65.47
2019-02-12T14:41:08.172Z,62.76
2019-02-12T14:43:36.270Z,70.16
2019-02-12T14:46:04.378Z,70.74
2019-02-12T14:48:32.499Z,63.71
2019-02-12T14:51:00.682Z,70.17
2019-02-12T14:53:31.166Z,65.42
2019-02-12T14:55:59.368Z,66.15
2019-02-12T14:58:27.435Z,70.53
2019-02-12T15:00:55.542Z,65.70
2019-02-12T15:03:23.668Z,64.27
2019-02-12T15:05:52.376Z,70.89
2019-02-12T15:08:20.504Z,67.99
2019-02-12T15:10:48.523Z,66.76
2019-02-12T15:13:16.567Z,65.82
2019-02-12T15:15:44.748Z,67.67
2019-02-12T15:18:12.783Z,69.76
2019-02-12T15:20:40.783Z,67.67
2019-02-12T15:23:08.861Z,67.76
2019-02-12T15:25:41.952Z,68.30
2019-02-12T15:28:06.862Z,69.90
2019-02-12T15:30:34.974Z,68.87
2019-02-12T15:33:03.371Z,70.46
2019-02-12T15:35:31.487Z,67.80
2019-02-12T15:37:59.593Z,66.90
2019-02-12T15:40:27.903Z,69.02
2019-02-12T15:42:55.974Z,65.86
2019-02-12T15:45:24.091Z,65.55
2019-02-12T15:47:52.358Z,67.11
2019-02-12T15:50:20.438Z,66.23
2019-02-12T15:52:48.659Z,67.06
2019-02-12T15:55:16.755Z,67.72
2019-02-12T15:57:45.959Z,67.56
2019-02-12T16:00:17.805Z,67.38
2019-02-12T16:02:45.403Z,69.87
2019-02-12T16:05:13.736Z,67.14
2019-02-12T16:07:42.614Z,67.54
2019-02-12T16:10:14.910Z,71.32
2019-02-12T16:12:43.848Z,70.22
2019-02-12T16:15:13.986Z,69.16
2019-02-12T16:17:42.074Z,70.31
2019-02-12T16:20:10.230Z,66.29
2019-02-12T16:22:38.300Z,69.71
2019-02-12T16:25:06.652Z,68.90
2019-02-12T16:27:34.759Z,67.59
2019-02-12T16:30:02.941Z,67.57
2019-02-12T16:32:31.081Z,67.87
2019-02-12T16:34:59.131Z,70.32
2019-02-12T16:37:27.183Z,68.78
2019-02-12T16:39:55.439Z,71.00
2019-02-12T16:42:24.332Z,69.20
2019-02-12T16:44:52.505Z,69.34
2019-02-12T16:47:20.874Z,70.30
2019-02-12T16:49:49.426Z,70.19
2019-02-12T16:52:20.866Z,70.59
2019-02-12T16:54:48.065Z,69.36
2019-02-12T16:57:16.377Z,70.88
2019-02-12T16:59:44.739Z,69.04
2019-02-12T17:02:13.153Z,69.85
2019-02-12T17:04:41.319Z,70.28
2019-02-12T17:07:09.790Z,71.28
2019-02-12T17:09:38.810Z,70.87
2019-02-12T17:12:07.393Z,71.21
2019-02-12T17:14:35.589Z,70.58
2019-02-12T17:17:04.644Z,70.55
2019-02-12T17:19:33.839Z,70.80
2019-02-12T17:22:01.905Z,70.75
2019-02-12T17:24:30.730Z,70.78
2019-02-12T17:27:00.115Z,70.29
2019-02-12T17:29:28.182Z,70.00
2019-02-12T17:31:56.410Z,70.28
2019-02-12T17:34:25.097Z,70.11
2019-02-12T17:36:53.311Z,70.34
2019-02-12T17:39:21.579Z,70.58
2019-02-12T17:42:16.388Z,70.31
2019-02-12T17:44:44.531Z,70.29
2019-02-12T17:47:13.749Z,70.71
2019-02-12T17:49:42.529Z,70.83
2019-02-12T17:52:10.583Z,70.59
2019-02-12T17:54:38.915Z,70.57
2019-02-12T17:57:09.007Z,71.05
2019-02-12T17:59:37.583Z,70.85
2019-02-12T18:02:06.052Z,70.14
2019-02-12T18:04:34.267Z,70.23
2019-02-12T18:07:03.512Z,70.09
2019-02-12T18:09:32.097Z,70.03
2019-02-12T18:12:00.565Z,70.60
2019-02-12T18:14:28.985Z,69.68
2019-02-12T18:16:57.308Z,70.08
2019-02-12T18:19:26.152Z,70.19
2019-02-12T18:21:54.351Z,70.37
2019-02-12T18:24:22.883Z,69.24
2019-02-12T18:26:51.468Z,69.37
2019-02-12T18:29:20.412Z,70.11
2019-02-12T18:31:49.585Z,68.82
2019-02-12T18:34:18.324Z,68.78
2019-02-12T18:36:47.545Z,69.14
2019-02-12T18:39:17.090Z,69.08
2019-02-12T18:41:45.672Z,68.89
2019-02-12T18:44:14.374Z,69.51
2019-02-12T18:46:43.346Z,69.42
2019-02-12T18:49:13.166Z,68.81
2019-02-12T18:51:42.980Z,68.65
2019-02-12T18:54:12.803Z,68.83
2019-02-12T18:56:41.972Z,70.37
2019-02-12T18:59:11.874Z,69.13
2019-02-12T19:01:43.773Z,69.84
2019-02-12T19:04:16.415Z,69.23
2019-02-12T19:06:46.261Z,70.43
2019-02-12T19:09:16.876Z,69.07
2019-02-12T19:11:53.746Z,68.79
2019-02-12T19:14:15.577Z,69.15
2019-02-12T19:16:44.174Z,68.84
2019-02-12T19:19:13.992Z,68.79
2019-02-12T19:21:42.695Z,69.42
2019-02-12T19:24:11.534Z,69.42
2019-02-12T19:26:40.190Z,69.68
2019-02-12T19:29:10.756Z,70.16
2019-02-12T19:31:38.713Z,69.32
2019-02-12T19:34:07.716Z,70.25
2019-02-12T19:36:36.424Z,69.02
2019-02-12T19:39:08.665Z,68.84
2019-02-12T19:41:37.490Z,69.29
2019-02-12T19:44:05.710Z,69.33
2019-02-12T19:46:34.217Z,69.38
2019-02-12T19:49:02.593Z,69.86
2019-02-12T19:51:31.348Z,70.04
2019-02-12T19:54:00.432Z,69.74
2019-02-12T19:56:28.833Z,70.32
2019-02-12T19:58:57.737Z,69.33
2019-02-12T20:01:26.366Z,69.72
2019-02-12T20:03:54.734Z,70.10
2019-02-12T20:06:23.863Z,69.02
2019-02-12T20:08:52.408Z,70.61
2019-02-12T20:11:20.939Z,71.15
2019-02-12T20:13:49.580Z,70.57
2019-02-12T20:16:18.151Z,70.07
2019-02-12T20:18:46.965Z,69.16
2019-02-12T20:21:15.571Z,70.65
2019-02-12T20:23:44.929Z,69.74
2019-02-12T20:26:13.451Z,71.08
2019-02-12T20:28:42.698Z,70.83
2019-02-12T20:31:11.801Z,70.36
2019-02-12T20:33:42.997Z,69.86
2019-02-12T20:36:12.093Z,69.65
2019-02-12T20:38:40.504Z,70.89
2019-02-12T20:41:09.712Z,71.54
2019-02-12T20:43:38.348Z,71.35
2019-02-12T20:46:07.156Z,69.82
2019-02-12T20:48:35.813Z,70.52
2019-02-12T20:51:04.150Z,71.93
2019-02-12T20:53:32.844Z,71.82
2019-02-12T20:56:01.474Z,72.48
2019-02-12T20:58:30.069Z,71.75
2019-02-12T21:00:59.241Z,71.45
2019-02-12T21:03:27.529Z,69.50
2019-02-12T21:05:55.686Z,71.89
2019-02-12T21:08:23.942Z,70.01
2019-02-12T21:10:52.299Z,70.34
2019-02-12T21:13:20.637Z,72.10
2019-02-12T21:15:48.757Z,70.94
2019-02-12T21:18:17.531Z,69.98
2019-02-12T21:20:45.783Z,72.47
2019-02-12T21:23:13.965Z,70.01
2019-02-12T21:25:42.551Z,70.55
2019-02-12T21:28:10.871Z,72.07
2019-02-12T21:30:38.968Z,71.60
2019-02-12T21:33:07.105Z,73.29
2019-02-12T21:35:35.212Z,69.06
2019-02-12T21:38:04.954Z,68.75
2019-02-12T21:40:32.997Z,71.32
2019-02-12T21:43:01.139Z,71.69
2019-02-12T21:45:29.265Z,73.32
2019-02-12T21:47:57.470Z,69.96
2019-02-12T21:50:25.656Z,70.98
2019-02-12T21:52:53.884Z,70.31
2019-02-12T21:55:22.058Z,73.10
2019-02-12T21:57:50.144Z,72.19
2019-02-12T22:00:18.266Z,72.52
2019-02-12T22:02:46.316Z,72.77
2019-02-12T22:05:14.772Z,69.58
2019-02-12T22:07:42.950Z,72.59
2019-02-12T22:10:13.084Z,71.50
2019-02-12T22:12:41.323Z,72.66
2019-02-12T22:15:13.269Z,69.41
2019-02-12T22:17:41.912Z,73.08
2019-02-12T22:20:11.746Z,71.97
2019-02-12T22:22:39.909Z,72.04
2019-02-12T22:25:08.069Z,73.48
2019-02-12T22:27:40.324Z,72.99
2019-02-12T22:30:09.091Z,73.98
2019-02-12T22:32:37.083Z,73.79
2019-02-12T22:35:05.506Z,72.57
2019-02-12T22:37:33.507Z,72.45
2019-02-12T22:40:01.624Z,72.91
2019-02-12T22:42:29.694Z,71.17
2019-02-12T22:44:58.100Z,69.99
2019-02-12T22:47:26.196Z,72.87
2019-02-12T22:49:54.320Z,72.83
2019-02-12T22:52:22.424Z,72.13
2019-02-12T22:54:50.552Z,72.33
2019-02-12T22:57:18.646Z,71.74
2019-02-12T22:59:46.757Z,71.80
2019-02-12T23:02:14.812Z,68.48
2019-02-12T23:04:42.967Z,71.67
2019-02-12T23:07:11.162Z,71.61
2019-02-12T23:09:39.177Z,70.87
2019-02-12T23:12:07.257Z,70.83
2019-02-12T23:14:35.349Z,70.42
2019-02-12T23:17:03.499Z,70.31
2019-02-12T23:19:31.549Z,70.93
2019-02-12T23:21:59.889Z,70.69
2019-02-12T23:24:27.955Z,69.88
2019-02-12T23:26:55.984Z,69.65
2019-02-12T23:29:24.417Z,69.55
2019-02-12T23:31:52.583Z,69.47
2019-02-12T23:34:20.709Z,69.38
2019-02-12T23:36:48.756Z,68.75
2019-02-12T23:39:16.751Z,65.62
2019-02-12T23:41:44.859Z,69.68
2019-02-12T23:44:12.934Z,68.59
2019-02-12T23:46:41.012Z,68.59
2019-02-12T23:49:09.024Z,69.85
2019-02-12T23:51:37.163Z,70.10
2019-02-12T23:54:05.206Z,70.12
2019-02-12T23:56:33.528Z,70.00
2019-02-12T23:59:01.500Z,69.24
